Time;durP1;ratioP1;P1;durP2;ratioP2;P2;SDS_P1;SDS_P2;PMS_P1;PMS_P2;Temp;Humidity;BMP_temperature;BMP_pressure;BME280_temperature;BME280_humidity;BME280_pressure;Samples;Min_cycle;Max_cycle;Signal;HPM_P1;HPM_P2
2021/08/22 00:01:21;;;;;;;7.93;4.28;;;20.70;94.80;;;;;;5033415;28;20026;-72
2021/08/22 00:03:47;;;;;;;7.05;4.50;;;20.70;94.80;;;;;;5033634;28;20117;-71
2021/08/22 00:06:12;;;;;;;5.72;4.05;;;20.60;94.80;;;;;;5025740;28;20037;-71
2021/08/22 00:08:44;;;;;;;9.98;3.90;;;20.60;94.80;;;;;;5016141;28;20040;-71
2021/08/22 00:11:10;;;;;;;9.27;3.78;;;20.60;94.80;;;;;;5033687;28;20395;-72
2021/08/22 00:13:36;;;;;;;5.90;4.07;;;20.60;95.10;;;;;;5032921;28;20117;-71
2021/08/22 00:16:02;;;;;;;6.60;4.40;;;20.50;95.10;;;;;;5033032;28;20340;-72
2021/08/22 00:18:28;;;;;;;7.93;4.43;;;20.50;95.00;;;;;;5033109;28;20045;-72
2021/08/22 00:20:54;;;;;;;6.10;4.07;;;20.40;95.10;;;;;;5033207;28;20029;-71
2021/08/22 00:23:19;;;;;;;7.22;4.10;;;20.40;95.20;;;;;;5032864;28;20032;-71
2021/08/22 00:25:45;;;;;;;8.07;4.57;;;20.40;95.30;;;;;;5033494;28;20025;-71
2021/08/22 00:28:11;;;;;;;7.28;4.10;;;20.40;95.30;;;;;;5032930;28;20034;-72
2021/08/22 00:30:37;;;;;;;6.90;4.70;;;20.40;95.20;;;;;;5033115;28;20068;-71
2021/08/22 00:33:03;;;;;;;7.38;3.88;;;20.40;95.30;;;;;;5032854;28;20425;-72
2021/08/22 00:35:28;;;;;;;8.18;4.07;;;20.30;95.40;;;;;;5032713;28;20035;-71
2021/08/22 00:37:57;;;;;;;7.43;4.22;;;20.30;95.40;;;;;;5033254;28;20099;-72
2021/08/22 00:40:24;;;;;;;7.07;4.43;;;20.30;95.50;;;;;;5032568;28;20049;-71
2021/08/22 00:42:49;;;;;;;6.43;4.40;;;20.20;95.60;;;;;;5032616;28;20040;-72
2021/08/22 00:45:16;;;;;;;11.55;4.85;;;20.10;95.80;;;;;;5032574;28;20112;-72
2021/08/22 00:47:43;;;;;;;8.57;4.82;;;20.20;95.60;;;;;;5029067;28;20093;-72
2021/08/22 00:50:14;;;;;;;6.05;3.97;;;20.20;95.50;;;;;;5013181;28;20419;-71
2021/08/22 00:52:40;;;;;;;7.25;4.45;;;20.20;95.50;;;;;;5032577;28;20030;-71
2021/08/22 00:55:07;;;;;;;8.68;4.43;;;20.20;95.50;;;;;;5032357;28;20039;-72
2021/08/22 00:57:33;;;;;;;6.30;4.20;;;20.10;95.60;;;;;;5020656;28;20050;-70
2021/08/22 01:00:02;;;;;;;6.53;4.32;;;20.10;95.50;;;;;;5018284;28;20099;-71
2021/08/22 01:02:33;;;;;;;;;;;20.00;95.60;;;;;;5033107;28;20025;-71
2021/08/22 01:05:33;;;;;;;8.02;3.95;;;20.10;95.70;;;;;;5033005;28;19901;-71
2021/08/22 01:08:21;;;;;;;12.73;4.90;;;20.00;95.70;;;;;;5012821;28;20045;-72
2021/08/22 01:10:48;;;;;;;10.75;4.57;;;20.00;95.70;;;;;;5012618;28;20042;-70
2021/08/22 01:13:19;;;;;;;12.25;5.18;;;20.00;95.70;;;;;;5028411;28;20125;-71
2021/08/22 01:15:50;;;;;;;4.72;3.90;;;19.90;95.80;;;;;;5031847;28;20030;-71
2021/08/22 01:18:19;;;;;;;5.93;4.03;;;20.00;95.70;;;;;;5032040;28;20511;-73
2021/08/22 01:21:15;;;;;;;7.13;4.60;;;19.90;96.00;;;;;;5031294;28;20040;-72
2021/08/22 01:23:48;;;;;;;7.70;3.80;;;19.90;95.90;;;;;;5032337;28;20033;-72
2021/08/22 01:26:17;;;;;;;8.95;5.32;;;19.90;95.90;;;;;;5032491;28;20369;-71
2021/08/22 01:28:45;;;;;;;8.68;4.60;;;19.90;95.90;;;;;;5012334;28;20042;-72
2021/08/22 01:31:19;;;;;;;5.22;4.13;;;19.90;96.00;;;;;;5012234;28;20049;-71
2021/08/22 01:33:47;;;;;;;8.10;4.45;;;19.90;96.00;;;;;;5012378;28;20065;-72
2021/08/22 01:36:13;;;;;;;6.18;4.65;;;19.80;96.20;;;;;;5011751;28;20034;-71
2021/08/22 01:38:40;;;;;;;6.18;4.05;;;19.80;96.40;;;;;;5011788;28;20464;-71
2021/08/22 01:41:07;;;;;;;8.40;4.55;;;19.80;96.40;;;;;;5012055;28;20037;-73
2021/08/22 01:43:34;;;;;;;6.57;4.45;;;19.80;96.40;;;;;;5011903;28;20152;-72
2021/08/22 01:46:01;;;;;;;12.15;6.82;;;19.80;96.40;;;;;;5011884;28;20038;-72
2021/08/22 01:48:27;;;;;;;9.57;4.70;;;19.80;96.50;;;;;;5010799;28;20350;-72
2021/08/22 01:51:00;;;;;;;7.35;4.20;;;19.70;96.60;;;;;;5011966;28;20096;-71
2021/08/22 01:53:26;;;;;;;8.13;4.68;;;19.60;96.70;;;;;;5011639;28;20030;-72
2021/08/22 01:55:53;;;;;;;7.18;4.35;;;19.70;96.60;;;;;;5012473;28;20037;-71
2021/08/22 01:58:21;;;;;;;7.15;4.93;;;19.70;96.60;;;;;;5011309;28;20378;-72
2021/08/22 02:00:49;;;;;;;6.20;4.03;;;19.70;96.50;;;;;;5011819;28;20132;-72
2021/08/22 02:03:34;;;;;;;8.70;4.60;;;19.70;96.40;;;;;;5011752;28;20037;-72
2021/08/22 02:06:09;;;;;;;8.57;4.55;;;19.70;96.50;;;;;;5011669;28;20022;-72
2021/08/22 02:08:36;;;;;;;5.35;4.18;;;19.70;96.40;;;;;;5011490;28;20029;-71
2021/08/22 02:11:16;;;;;;;7.35;4.75;;;19.70;96.50;;;;;;5012056;28;20109;-70
2021/08/22 02:13:45;;;;;;;5.72;4.28;;;19.70;96.50;;;;;;5011622;28;20231;-70
2021/08/22 02:16:15;;;;;;;10.13;4.60;;;19.70;96.60;;;;;;5011727;28;20123;-72
2021/08/22 02:18:41;;;;;;;6.03;4.18;;;19.60;96.70;;;;;;5011268;28;20572;-71
2021/08/22 02:21:08;;;;;;;5.13;4.38;;;19.60;96.60;;;;;;5011330;28;20411;-71
2021/08/22 02:23:35;;;;;;;9.25;4.45;;;19.60;96.80;;;;;;5011468;28;20495;-72
2021/08/22 02:26:00;;;;;;;6.22;4.35;;;19.60;97.00;;;;;;5011943;28;20452;-70
2021/08/22 02:28:27;;;;;;;6.68;4.00;;;19.40;97.20;;;;;;5011680;28;20109;-71
2021/08/22 02:30:52;;;;;;;6.03;4.15;;;19.30;97.40;;;;;;5012235;28;20068;-70
2021/08/22 02:33:18;;;;;;;7.75;4.10;;;19.40;97.30;;;;;;5015394;28;20057;-72
2021/08/22 02:35:44;;;;;;;7.38;4.43;;;19.50;97.10;;;;;;5015239;28;20673;-71
2021/08/22 02:38:09;;;;;;;6.18;4.20;;;19.40;97.10;;;;;;5015528;28;20422;-72
2021/08/22 02:40:35;;;;;;;8.52;4.82;;;19.50;97.00;;;;;;5014990;28;20038;-72
2021/08/22 02:43:01;;;;;;;7.15;4.68;;;19.50;97.00;;;;;;5015067;28;20135;-72
2021/08/22 02:45:27;;;;;;;8.82;4.78;;;19.40;97.00;;;;;;5015197;28;20036;-72
2021/08/22 02:47:58;;;;;;;10.35;5.30;;;19.40;97.00;;;;;;5020908;28;20467;-72
2021/08/22 02:50:25;;;;;;;14.18;4.82;;;19.40;97.10;;;;;;5033661;28;20022;-72
2021/08/22 02:52:51;;;;;;;6.85;4.75;;;19.30;97.10;;;;;;5035396;28;20024;-73
2021/08/22 02:55:17;;;;;;;7.28;4.68;;;19.30;97.00;;;;;;5034791;28;20144;-72
2021/08/22 02:57:43;;;;;;;8.00;4.65;;;19.30;97.20;;;;;;5034511;28;20053;-72
2021/08/22 03:00:10;;;;;;;6.82;4.10;;;19.30;97.30;;;;;;5034817;28;20076;-72
2021/08/22 03:02:35;;;;;;;7.70;4.25;;;19.30;97.40;;;;;;5034617;28;20032;-71
2021/08/22 03:05:01;;;;;;;6.32;4.32;;;19.30;97.40;;;;;;5035119;28;20021;-71
2021/08/22 03:07:27;;;;;;;8.38;5.03;;;19.20;97.50;;;;;;5034454;28;20467;-72
2021/08/22 03:09:52;;;;;;;6.60;4.20;;;19.30;97.50;;;;;;5034570;28;20033;-72
2021/08/22 03:12:18;;;;;;;10.15;4.65;;;19.20;97.50;;;;;;5034253;28;20128;-72
2021/08/22 03:14:43;;;;;;;10.48;4.50;;;19.20;97.60;;;;;;5034062;28;20025;-71
2021/08/22 03:17:09;;;;;;;7.65;4.53;;;19.20;97.60;;;;;;5035458;28;20033;-72
2021/08/22 03:19:35;;;;;;;8.25;4.53;;;19.20;97.50;;;;;;5033021;28;20096;-71
2021/08/22 03:22:00;;;;;;;7.65;4.47;;;19.20;97.30;;;;;;5034473;28;20049;-71
2021/08/22 03:24:26;;;;;;;10.32;5.05;;;19.20;97.40;;;;;;5034221;28;20021;-71
2021/08/22 03:26:52;;;;;;;8.20;4.80;;;19.20;97.70;;;;;;5034209;28;20537;-71
2021/08/22 03:29:17;;;;;;;6.07;4.20;;;19.20;97.50;;;;;;5034075;28;20080;-72
2021/08/22 03:31:43;;;;;;;5.72;4.43;;;19.20;97.40;;;;;;5034616;28;20060;-71
2021/08/22 03:34:09;;;;;;;5.88;4.82;;;19.10;97.50;;;;;;5033928;28;20034;-72
2021/08/22 03:36:37;;;;;;;9.13;4.78;;;19.10;97.50;;;;;;5033986;28;20119;-71
2021/08/22 03:39:02;;;;;;;;;;;19.10;97.40;;;;;;5034676;28;20045;-72
2021/08/22 03:41:28;;;;;;;6.70;4.53;;;19.10;97.50;;;;;;5033830;28;19905;-72
2021/08/22 03:43:53;;;;;;;6.35;4.38;;;19.00;97.50;;;;;;5033450;28;20029;-72
2021/08/22 03:46:19;;;;;;;7.15;4.95;;;19.10;97.60;;;;;;5033996;28;20541;-71
2021/08/22 03:48:45;;;;;;;7.85;5.07;;;19.10;97.50;;;;;;5033652;28;20032;-71
2021/08/22 03:51:10;;;;;;;9.07;5.00;;;19.10;97.40;;;;;;5033731;28;20121;-71
2021/08/22 03:53:36;;;;;;;6.60;4.90;;;19.10;97.50;;;;;;5033425;28;20037;-71
2021/08/22 03:56:01;;;;;;;8.07;4.38;;;19.00;97.50;;;;;;5034052;28;20029;-72
2021/08/22 03:58:27;;;;;;;7.20;4.57;;;19.00;97.40;;;;;;5033172;28;20054;-71
2021/08/22 04:00:53;;;;;;;6.10;4.40;;;19.10;97.50;;;;;;5033347;28;20030;-72
2021/08/22 04:03:18;;;;;;;6.45;4.63;;;19.10;97.50;;;;;;5033659;28;20060;-71
2021/08/22 04:05:44;;;;;;;6.75;4.63;;;19.10;97.50;;;;;;5033513;28;20460;-71
2021/08/22 04:08:09;;;;;;;6.20;4.78;;;19.00;97.50;;;;;;5033118;28;20041;-72
2021/08/22 04:10:36;;;;;;;8.27;5.20;;;19.10;97.40;;;;;;5032253;28;20018;-72
2021/08/22 04:13:01;;;;;;;7.68;5.03;;;19.10;97.40;;;;;;5033472;28;20030;-72
2021/08/22 04:15:27;;;;;;;9.88;5.13;;;19.00;97.50;;;;;;5033362;28;20159;-70
2021/08/22 04:17:52;;;;;;;7.68;5.15;;;18.90;97.60;;;;;;5033175;28;20034;-71
2021/08/22 04:20:18;;;;;;;13.63;9.20;;;18.90;97.90;;;;;;5033001;28;20051;-71
2021/08/22 04:22:44;;;;;;;14.77;7.93;;;18.80;97.70;;;;;;5032476;28;20014;-72
2021/08/22 04:25:11;;;;;;;12.45;7.95;;;18.90;97.50;;;;;;5033243;28;20041;-71
2021/08/22 04:27:41;;;;;;;13.63;7.78;;;19.00;97.50;;;;;;5033011;28;20029;-71
2021/08/22 04:30:12;;;;;;;14.80;7.03;;;19.00;97.40;;;;;;5032970;28;20516;-71
2021/08/22 04:32:38;;;;;;;8.65;6.88;;;19.00;97.50;;;;;;5032928;28;20032;-71
2021/08/22 04:35:06;;;;;;;9.57;7.20;;;19.00;97.60;;;;;;5033461;28;20022;-71
2021/08/22 04:37:32;;;;;;;11.98;7.65;;;19.00;97.70;;;;;;5032729;28;20075;-70
2021/08/22 04:39:58;;;;;;;12.13;7.13;;;19.10;97.90;;;;;;5032789;28;20085;-72
2021/08/22 04:42:24;;;;;;;13.45;7.18;;;19.10;98.10;;;;;;5032869;28;20151;-74
2021/08/22 04:44:50;;;;;;;12.88;7.43;;;19.00;98.50;;;;;;5032636;28;20051;-73
2021/08/22 04:47:15;;;;;;;15.48;7.88;;;19.00;98.80;;;;;;5033242;28;20022;-73
2021/08/22 04:49:41;;;;;;;13.10;7.75;;;19.00;98.80;;;;;;5031670;28;20044;-74
2021/08/22 04:52:06;;;;;;;13.88;8.88;;;19.00;98.90;;;;;;5032680;28;20135;-72
2021/08/22 04:54:32;;;;;;;12.90;8.32;;;19.00;99.00;;;;;;5032391;28;20112;-73
2021/08/22 04:56:57;;;;;;;14.93;8.85;;;19.00;99.20;;;;;;5032280;28;20140;-72
2021/08/22 04:59:24;;;;;;;10.75;7.90;;;19.00;99.40;;;;;;5032550;28;20044;-73
2021/08/22 05:01:50;;;;;;;15.43;9.13;;;19.00;99.10;;;;;;5032988;28;20478;-73
2021/08/22 05:04:16;;;;;;;16.13;9.45;;;19.00;99.80;;;;;;5032456;28;20068;-73
2021/08/22 05:06:41;;;;;;;16.50;8.35;;;19.00;99.90;;;;;;5032198;28;20036;-72
2021/08/22 05:09:07;;;;;;;17.20;9.07;;;19.00;99.90;;;;;;5031961;28;20049;-72
2021/08/22 05:11:34;;;;;;;18.67;10.27;;;19.00;99.90;;;;;;5032193;28;20029;-71
2021/08/22 05:13:59;;;;;;;14.55;7.90;;;19.00;99.90;;;;;;5032475;28;20049;-72
2021/08/22 05:16:25;;;;;;;16.30;9.15;;;19.10;99.90;;;;;;5032120;28;20057;-71
2021/08/22 05:18:51;;;;;;;13.05;8.65;;;19.10;99.90;;;;;;5031835;28;20091;-71
2021/08/22 05:21:16;;;;;;;16.77;9.90;;;19.10;99.90;;;;;;5031810;28;20030;-73
2021/08/22 05:23:42;;;;;;;19.00;9.35;;;19.00;99.90;;;;;;5032000;28;20099;-71
2021/08/22 05:26:07;;;;;;;13.43;9.02;;;19.00;99.90;;;;;;5032328;28;20509;-72
2021/08/22 05:28:33;;;;;;;12.13;8.60;;;18.90;99.90;;;;;;5031966;28;20282;-71
2021/08/22 05:30:59;;;;;;;12.13;8.07;;;18.90;99.90;;;;;;5030725;28;20039;-70
2021/08/22 05:33:24;;;;;;;12.50;8.93;;;18.90;99.90;;;;;;5031857;28;20048;-71
2021/08/22 05:35:50;;;;;;;16.35;8.82;;;18.90;99.90;;;;;;5031630;28;20116;-72
2021/08/22 05:38:15;;;;;;;12.80;8.40;;;18.80;99.90;;;;;;5031965;28;20443;-71
2021/08/22 05:40:41;;;;;;;13.15;8.32;;;18.90;99.90;;;;;;5031642;28;20053;-71
2021/08/22 05:43:06;;;;;;;13.23;8.43;;;18.90;99.90;;;;;;5030352;28;20045;-71
2021/08/22 05:45:32;;;;;;;13.13;8.82;;;18.90;99.90;;;;;;5031571;28;20041;-73
2021/08/22 05:47:58;;;;;;;15.02;9.23;;;18.90;99.90;;;;;;5031510;28;20091;-70
2021/08/22 05:50:23;;;;;;;12.65;8.57;;;18.90;99.90;;;;;;5031553;28;20083;-71
2021/08/22 05:52:49;;;;;;;14.05;8.45;;;18.90;99.90;;;;;;5031793;28;20029;-70
2021/08/22 05:55:15;;;;;;;14.07;8.82;;;18.90;99.90;;;;;;5031538;28;20040;-71
2021/08/22 05:57:42;;;;;;;12.73;8.75;;;18.90;99.90;;;;;;5031181;28;20049;-71
2021/08/22 06:00:09;;;;;;;15.43;9.18;;;18.90;99.90;;;;;;5031282;28;20045;-71
2021/08/22 06:02:37;;;;;;;12.07;8.40;;;18.90;99.90;;;;;;5031791;28;20030;-71
2021/08/22 06:05:04;;;;;;;12.40;9.07;;;18.90;99.90;;;;;;5030630;28;20025;-71
2021/08/22 06:07:30;;;;;;;15.23;9.70;;;18.80;99.90;;;;;;5031016;28;20041;-72
2021/08/22 06:09:58;;;;;;;11.48;8.38;;;18.80;99.90;;;;;;5031158;28;20029;-71
2021/08/22 06:12:23;;;;;;;11.98;9.00;;;18.80;99.90;;;;;;5031285;28;20033;-73
2021/08/22 06:14:49;;;;;;;11.32;8.30;;;18.90;99.90;;;;;;5029942;28;20056;-71
2021/08/22 06:17:14;;;;;;;12.98;8.68;;;18.90;99.90;;;;;;5031555;28;20037;-70
2021/08/22 06:19:40;;;;;;;15.43;9.57;;;18.90;99.90;;;;;;5030781;28;20037;-71
2021/08/22 06:22:06;;;;;;;11.93;8.60;;;18.80;99.90;;;;;;5031132;28;20084;-69
2021/08/22 06:24:32;;;;;;;13.02;8.63;;;18.80;99.90;;;;;;5031136;28;20038;-72
2021/08/22 06:26:59;;;;;;;13.02;9.35;;;18.80;99.90;;;;;;5030863;28;20029;-72
2021/08/22 06:29:24;;;;;;;12.40;8.80;;;18.80;99.90;;;;;;5030805;28;20041;-69
2021/08/22 06:31:51;;;;;;;14.27;9.40;;;18.80;99.90;;;;;;5031337;28;20407;-70
2021/08/22 06:34:16;;;;;;;12.93;9.30;;;18.80;99.90;;;;;;5030836;28;20094;-70
2021/08/22 06:36:42;;;;;;;12.40;9.80;;;18.80;99.90;;;;;;5030976;28;20067;-70
2021/08/22 06:39:08;;;;;;;14.88;9.98;;;18.80;99.90;;;;;;5030510;28;20068;-71
2021/08/22 06:41:34;;;;;;;14.13;9.60;;;18.80;99.90;;;;;;5030946;28;20099;-69
2021/08/22 06:44:00;;;;;;;12.23;8.25;;;18.70;99.90;;;;;;5030965;28;20475;-72
2021/08/22 06:46:26;;;;;;;12.80;9.13;;;18.80;99.90;;;;;;5030712;28;20275;-74
2021/08/22 06:48:52;;;;;;;14.55;10.27;;;18.70;99.90;;;;;;5030485;28;20037;-73
2021/08/22 06:51:17;;;;;;;12.75;9.50;;;18.70;99.90;;;;;;5030651;28;20514;-72
2021/08/22 06:53:43;;;;;;;10.25;8.93;;;18.70;99.90;;;;;;5030469;28;20064;-71
2021/08/22 06:56:08;;;;;;;13.30;9.60;;;18.70;99.90;;;;;;5029963;28;20402;-70
2021/08/22 06:58:34;;;;;;;13.82;9.80;;;18.80;99.90;;;;;;5030172;28;20136;-71
2021/08/22 07:01:00;;;;;;;13.63;9.30;;;18.80;99.90;;;;;;5030466;28;20033;-70
2021/08/22 07:03:26;;;;;;;12.18;9.38;;;18.80;99.90;;;;;;5030509;28;20036;-71
2021/08/22 07:05:51;;;;;;;12.93;9.02;;;18.70;99.90;;;;;;5030357;28;20029;-72
2021/08/22 07:08:18;;;;;;;14.82;8.75;;;18.70;99.90;;;;;;5030370;28;20187;-72
2021/08/22 07:10:43;;;;;;;14.85;10.57;;;18.70;99.90;;;;;;5030873;28;20029;-72
2021/08/22 07:13:09;;;;;;;14.00;9.35;;;18.70;99.90;;;;;;5030461;28;20029;-72
2021/08/22 07:15:35;;;;;;;12.88;9.15;;;18.70;99.90;;;;;;5030213;28;20025;-72
2021/08/22 07:18:01;;;;;;;14.38;9.95;;;18.70;99.90;;;;;;5030217;28;20444;-72
2021/08/22 07:20:27;;;;;;;15.38;10.07;;;18.60;99.90;;;;;;5033799;28;20055;-71
2021/08/22 07:22:52;;;;;;;12.43;8.98;;;18.70;99.90;;;;;;5034293;28;20029;-71
2021/08/22 07:25:20;;;;;;;12.95;9.18;;;18.70;99.90;;;;;;5033906;28;20417;-72
2021/08/22 07:27:46;;;;;;;12.25;8.93;;;18.60;99.90;;;;;;5033903;28;20068;-70
2021/08/22 07:30:12;;;;;;;12.13;8.70;;;18.60;99.90;;;;;;5032737;28;20037;-69
2021/08/22 07:32:38;;;;;;;12.43;9.02;;;18.60;99.90;;;;;;5033949;28;20041;-71
2021/08/22 07:35:04;;;;;;;16.83;8.90;;;18.70;99.90;;;;;;5033113;28;20120;-71
2021/08/22 07:37:30;;;;;;;13.10;8.65;;;18.70;99.90;;;;;;5033590;28;20045;-69
2021/08/22 07:39:56;;;;;;;13.73;8.98;;;18.70;99.90;;;;;;5033733;28;20422;-68
2021/08/22 07:42:21;;;;;;;13.27;8.77;;;18.70;99.90;;;;;;5033576;28;20033;-68
2021/08/22 07:44:47;;;;;;;14.63;9.38;;;18.70;99.90;;;;;;5033612;28;20045;-70
2021/08/22 07:47:12;;;;;;;11.90;8.95;;;18.60;99.90;;;;;;5033947;28;20095;-69
2021/08/22 07:49:38;;;;;;;13.50;9.15;;;18.60;99.90;;;;;;5033163;28;20454;-70
2021/08/22 07:52:04;;;;;;;18.08;10.75;;;18.60;99.90;;;;;;5033390;28;20034;-70
2021/08/22 07:54:29;;;;;;;16.35;11.40;;;18.60;99.90;;;;;;5031954;28;20093;-69
2021/08/22 07:56:55;;;;;;;16.05;10.10;;;18.70;99.90;;;;;;5032127;28;20038;-71
2021/08/22 07:59:20;;;;;;;14.35;9.70;;;18.70;99.90;;;;;;5033320;28;20455;-71
2021/08/22 08:01:46;;;;;;;16.55;11.35;;;18.70;99.90;;;;;;5033879;28;20090;-69
2021/08/22 08:04:12;;;;;;;15.50;11.23;;;18.70;99.90;;;;;;5033187;28;20029;-69
2021/08/22 08:06:37;;;;;;;18.83;11.95;;;18.70;99.90;;;;;;5033196;28;20125;-69
2021/08/22 08:09:04;;;;;;;12.73;8.48;;;18.70;99.90;;;;;;5033180;28;20447;-71
2021/08/22 08:11:30;;;;;;;11.95;7.30;;;18.70;99.90;;;;;;5032871;28;20028;-70
2021/08/22 08:13:55;;;;;;;11.52;7.43;;;18.80;99.90;;;;;;5033421;28;20029;-69
2021/08/22 08:16:21;;;;;;;10.38;7.45;;;18.80;99.90;;;;;;5031997;28;20112;-70
2021/08/22 08:18:47;;;;;;;12.02;7.57;;;18.80;99.90;;;;;;5032782;28;20041;-70
2021/08/22 08:21:13;;;;;;;10.00;7.53;;;18.80;99.90;;;;;;5032873;28;20463;-70
2021/08/22 08:23:38;;;;;;;10.30;7.30;;;18.80;99.90;;;;;;5032770;28;20133;-69
2021/08/22 08:26:04;;;;;;;10.63;7.97;;;18.80;99.90;;;;;;5032083;28;20030;-71
2021/08/22 08:28:31;;;;;;;15.02;9.25;;;18.80;99.90;;;;;;5032387;28;20091;-69
2021/08/22 08:30:57;;;;;;;19.38;12.00;;;18.80;99.90;;;;;;5032749;28;20029;-70
2021/08/22 08:33:25;;;;;;;13.48;7.78;;;18.80;99.90;;;;;;5032703;28;20053;-71
2021/08/22 08:35:50;;;;;;;12.80;7.63;;;18.80;99.90;;;;;;5032657;28;20030;-70
2021/08/22 08:38:16;;;;;;;14.35;7.38;;;18.90;99.90;;;;;;5031575;28;20021;-73
2021/08/22 08:40:42;;;;;;;10.23;7.07;;;18.90;99.90;;;;;;5031799;28;20061;-69
2021/08/22 08:43:10;;;;;;;10.52;7.47;;;18.90;99.90;;;;;;5032347;28;20188;-68
2021/08/22 08:45:49;;;;;;;8.40;6.72;;;18.90;99.90;;;;;;5032577;28;20030;-70
2021/08/22 08:48:19;;;;;;;17.92;11.63;;;19.00;99.90;;;;;;5032071;28;20064;-69
2021/08/22 08:50:54;;;;;;;13.75;9.43;;;19.00;99.90;;;;;;5032241;28;20041;-71
2021/08/22 08:53:33;;;;;;;12.52;8.05;;;19.00;99.90;;;;;;5032078;28;20025;-70
2021/08/22 08:56:05;;;;;;;10.55;7.18;;;19.10;99.90;;;;;;5032338;28;20095;-71
2021/08/22 08:58:30;;;;;;;12.90;9.80;;;19.10;99.90;;;;;;5031743;28;20056;-68
2021/08/22 09:00:56;;;;;;;9.57;7.70;;;19.10;99.90;;;;;;5031858;28;20359;-71
2021/08/22 09:03:23;;;;;;;15.63;10.65;;;19.10;99.90;;;;;;5030996;28;20730;-71
2021/08/22 09:05:58;;;;;;;12.05;7.10;;;19.20;99.90;;;;;;5031958;28;20037;-71
2021/08/22 09:09:01;;;;;;;11.18;8.43;;;19.20;99.90;;;;;;5031889;28;20386;-71
2021/08/22 09:11:46;;;;;;;12.73;8.00;;;19.30;99.90;;;;;;5032063;28;20036;-70
2021/08/22 09:14:17;;;;;;;8.35;7.13;;;19.30;99.90;;;;;;5032031;28;20025;-69
2021/08/22 09:17:20;;;;;;;9.45;6.55;;;19.30;99.90;;;;;;5031878;28;20428;-69
2021/08/22 09:20:23;;;;;;;8.07;6.15;;;19.40;99.90;;;;;;5031651;28;20033;-70
2021/08/22 09:23:26;;;;;;;11.50;7.93;;;19.50;99.90;;;;;;5030490;28;20034;-69
2021/08/22 09:26:17;;;;;;;9.00;6.60;;;19.60;99.90;;;;;;5012184;28;20068;-70
2021/08/22 09:29:02;;;;;;;10.60;7.25;;;19.70;99.90;;;;;;5011891;28;20129;-70
2021/08/22 09:32:22;;;;;;;7.60;5.68;;;19.70;99.90;;;;;;5029759;28;20037;-70
2021/08/22 09:35:24;;;;;;;7.63;5.85;;;19.80;99.90;;;;;;5029371;28;20045;-70
2021/08/22 09:38:24;;;;;;;8.27;6.05;;;20.00;99.90;;;;;;5031458;28;20471;-69
2021/08/22 09:41:29;;;;;;;6.85;5.82;;;20.20;99.90;;;;;;5011088;28;20037;-70
2021/08/22 09:44:32;;;;;;;10.23;6.10;;;20.30;99.90;;;;;;5031463;28;20055;-70
2021/08/22 09:47:40;;;;;;;8.70;6.32;;;20.40;99.90;;;;;;5031456;28;20056;-69
2021/08/22 09:50:41;;;;;;;7.50;5.80;;;20.70;99.90;;;;;;5031347;28;20045;-70
2021/08/22 09:54:03;;;;;;;11.30;7.95;;;21.00;99.90;;;;;;5030201;28;20056;-69
2021/08/22 09:57:06;;;;;;;7.32;5.90;;;21.20;99.90;;;;;;5011430;28;20038;-70
2021/08/22 10:00:06;;;;;;;9.15;6.22;;;21.40;99.90;;;;;;5011279;28;20493;-70
2021/08/22 10:02:35;;;;;;;9.23;6.05;;;21.40;99.90;;;;;;5011409;28;20069;-71
2021/08/22 10:05:10;;;;;;;14.35;8.85;;;21.50;99.90;;;;;;5011671;28;20647;-69
2021/08/22 10:07:48;;;;;;;7.32;6.00;;;21.70;99.90;;;;;;5011370;28;20544;-73
2021/08/22 10:10:24;;;;;;;13.55;5.50;;;22.00;99.90;;;;;;5027284;28;20033;-70
2021/08/22 10:12:50;;;;;;;9.35;5.97;;;22.20;99.90;;;;;;5030966;28;20030;-70
2021/08/22 10:15:20;;;;;;;9.60;6.53;;;22.40;99.90;;;;;;5030921;28;20041;-70
2021/08/22 10:17:47;;;;;;;8.05;6.13;;;22.40;99.90;;;;;;5030860;28;20125;-70
2021/08/22 10:20:14;;;;;;;12.32;5.38;;;22.40;99.90;;;;;;5031240;28;20049;-70
2021/08/22 10:22:40;;;;;;;6.72;5.82;;;22.50;99.90;;;;;;5030881;28;20108;-70
2021/08/22 10:25:11;;;;;;;6.68;5.65;;;22.70;99.90;;;;;;5030889;28;20392;-72
2021/08/22 10:27:47;;;;;;;8.35;5.20;;;22.80;99.90;;;;;;5030797;28;20096;-72
2021/08/22 10:30:21;;;;;;;11.43;5.03;;;22.80;98.50;;;;;;5030816;28;20084;-69
2021/08/22 10:32:59;;;;;;;6.60;5.13;;;22.80;98.20;;;;;;5030727;28;20037;-72
2021/08/22 10:35:25;;;;;;;4.85;4.30;;;22.80;98.00;;;;;;5029728;28;20014;-71
2021/08/22 10:37:51;;;;;;;6.20;5.18;;;23.10;98.60;;;;;;5030996;28;20057;-72
2021/08/22 10:40:26;;;;;;;6.03;4.35;;;23.30;97.40;;;;;;5029857;28;20574;-73
2021/08/22 10:43:00;;;;;;;8.13;5.63;;;23.00;97.60;;;;;;5030646;28;20029;-71
2021/08/22 10:45:48;;;;;;;6.80;5.28;;;22.90;97.40;;;;;;5030655;28;20029;-72
2021/08/22 10:48:23;;;;;;;7.97;5.43;;;22.80;97.80;;;;;;5030490;28;20037;-71
2021/08/22 10:50:58;;;;;;;7.35;6.28;;;23.10;98.30;;;;;;5030554;28;20562;-72
2021/08/22 10:53:25;;;;;;;6.82;5.50;;;23.00;98.30;;;;;;5032837;28;20029;-73
2021/08/22 10:55:51;;;;;;;10.93;5.60;;;22.90;97.80;;;;;;5034898;28;20036;-72
2021/08/22 10:58:16;;;;;;;7.50;5.30;;;23.20;98.20;;;;;;5034135;28;20049;-71
2021/08/22 11:00:43;;;;;;;7.07;5.28;;;23.60;98.00;;;;;;5034161;28;20041;-70
2021/08/22 11:03:17;;;;;;;5.95;4.68;;;23.60;97.40;;;;;;5034232;28;20463;-70
2021/08/22 11:05:44;;;;;;;7.93;4.93;;;23.60;97.50;;;;;;5033979;28;20038;-70
2021/08/22 11:08:21;;;;;;;6.30;4.72;;;23.50;97.20;;;;;;5034407;28;20029;-69
2021/08/22 11:11:00;;;;;;;7.80;6.00;;;23.40;96.90;;;;;;4994663;28;20035;-70
2021/08/22 11:13:29;;;;;;;8.23;5.72;;;23.40;96.40;;;;;;5012301;28;20054;-69
2021/08/22 11:15:55;;;;;;;7.03;4.95;;;23.10;97.10;;;;;;5014092;28;20053;-70
2021/08/22 11:18:21;;;;;;;7.70;6.15;;;22.60;97.40;;;;;;5014180;28;20033;-69
2021/08/22 11:20:47;;;;;;;6.55;5.50;;;22.40;98.40;;;;;;5014106;28;20324;-70
2021/08/22 11:23:17;;;;;;;8.70;6.88;;;22.20;98.20;;;;;;5014509;28;20055;-69
2021/08/22 11:26:08;;;;;;;10.18;7.43;;;22.30;98.40;;;;;;4994526;28;20066;-68
2021/08/22 11:28:34;;;;;;;7.85;6.75;;;22.40;99.50;;;;;;5013081;28;20098;-69
2021/08/22 11:31:00;;;;;;;8.15;6.55;;;22.50;99.90;;;;;;5013859;28;20026;-69
2021/08/22 11:33:29;;;;;;;6.88;5.72;;;22.50;99.90;;;;;;5013759;28;20459;-69
2021/08/22 11:35:55;;;;;;;6.70;5.72;;;22.70;99.50;;;;;;5013697;28;20353;-70
2021/08/22 11:38:21;;;;;;;7.63;5.70;;;23.00;99.00;;;;;;5013892;28;20033;-70
2021/08/22 11:40:47;;;;;;;10.95;6.25;;;23.10;98.50;;;;;;5014033;28;20022;-70
2021/08/22 11:43:13;;;;;;;9.90;6.72;;;23.00;98.70;;;;;;5013814;28;20038;-70
2021/08/22 11:45:44;;;;;;;15.60;8.10;;;22.90;98.80;;;;;;5013639;28;20037;-70
2021/08/22 11:48:20;;;;;;;14.27;7.25;;;22.90;99.20;;;;;;5013701;28;20034;-70
2021/08/22 11:50:47;;;;;;;12.43;8.10;;;22.80;98.70;;;;;;5013557;28;20068;-72
2021/08/22 11:53:18;;;;;;;23.35;11.43;;;22.80;98.90;;;;;;5013722;28;20186;-70
2021/08/22 11:55:43;;;;;;;29.10;14.48;;;22.70;99.30;;;;;;5013633;28;20403;-71
2021/08/22 11:58:17;;;;;;;19.55;13.27;;;22.60;99.10;;;;;;5012293;28;20038;-72
2021/08/22 12:00:51;;;;;;;25.52;14.02;;;22.50;98.50;;;;;;5013156;28;20053;-73
2021/08/22 12:03:26;;;;;;;43.30;16.73;;;22.60;98.90;;;;;;5011790;28;20068;-72
2021/08/22 12:05:54;;;;;;;43.83;16.27;;;22.70;98.70;;;;;;5013185;28;20449;-72
2021/08/22 12:08:20;;;;;;;25.98;14.27;;;22.70;98.40;;;;;;5013136;28;20057;-72
2021/08/22 12:10:46;;;;;;;21.30;12.38;;;22.80;98.70;;;;;;5013510;28;20018;-70
2021/08/22 12:13:20;;;;;;;26.55;13.60;;;22.70;98.60;;;;;;5011995;28;20443;-70
2021/08/22 12:15:48;;;;;;;26.27;12.13;;;22.60;98.80;;;;;;5013258;28;20116;-70
2021/08/22 12:18:32;;;;;;;22.00;11.95;;;22.60;99.20;;;;;;5012948;28;20030;-68
2021/08/22 12:21:03;;;;;;;18.65;10.90;;;22.70;99.40;;;;;;5013163;28;20037;-69
2021/08/22 12:23:36;;;;;;;25.52;10.85;;;22.70;98.90;;;;;;5012861;28;20026;-70
2021/08/22 12:26:20;;;;;;;29.42;13.60;;;22.80;99.00;;;;;;5013358;28;20199;-69
2021/08/22 12:28:46;;;;;;;15.90;9.43;;;22.80;99.50;;;;;;5013227;28;20046;-67
2021/08/22 12:31:13;;;;;;;15.52;9.18;;;23.00;99.50;;;;;;5012879;28;20472;-68
2021/08/22 12:33:45;;;;;;;26.98;11.05;;;23.10;99.10;;;;;;5012965;28;20333;-70
2021/08/22 12:36:19;;;;;;;16.58;10.25;;;23.20;98.80;;;;;;5012718;28;20468;-68
2021/08/22 12:38:46;;;;;;;20.25;10.27;;;23.30;97.90;;;;;;5012689;28;20042;-68
2021/08/22 12:41:38;;;;;;;51.78;17.67;;;23.30;98.20;;;;;;5012918;28;20018;-68
2021/08/22 12:44:06;;;;;;;18.30;9.20;;;23.40;98.30;;;;;;5012788;28;20030;-68
2021/08/22 12:46:33;;;;;;;13.48;8.38;;;23.40;97.90;;;;;;5012686;28;20033;-69
2021/08/22 12:48:59;;;;;;;13.05;8.45;;;23.40;97.70;;;;;;5012437;28;20113;-69
2021/08/22 12:51:26;;;;;;;15.18;9.40;;;23.10;97.90;;;;;;5012575;28;20070;-70
2021/08/22 12:53:53;;;;;;;11.30;8.13;;;23.20;98.10;;;;;;5012452;28;20430;-69